Météo Laillé La Rouesnais (35890),Prévisions Météo 3 et 7 jours Observations temps réel,historique,bilan climatique
Photo de Laille
.//Meteo-Laille_Data_Jour.txt https://tgftp.nws.noaa.gov/data/observations/metar/stations/LFRN.TXT2022/01/28 18:00 LFRN 281800Z AUTO VRB02KT 9999 OVC020 09/08 Q1037 TEMPO 4000 BR BKN008
Rennes
couvert
Metar : 2022/01/28 18:00 LFRN 281800Z AUTO VRB02KT 9999 OVC020 09/08 Q1037 TEMPO 4000 BR BKN008
Couverture nuageuse : Overcast 2000 ft
Pression de 30.62 inHg (1037 hPa)
Humidité : 94%
Température : 48°F (9°C)
Vent de varies at 2 mph (4 km/h)
Visibilité : 6 miles (10 km)
Nantes
couvert
Metar : 2022/01/28 18:00 LFRS 281800Z AUTO VRB03KT 9999 OVC017 09/07 Q1038 NOSIG
Couverture nuageuse : Overcast 1700 ft
Traduc : Partly cloudy 700 ft
Pression de 30.65 inHg (1038 hPa)
Humidité : 87%
Température : 48°F (9°C)
Point de rosée : 45°F (7°C)
Vent de varies at 3 mph (6 km/h)
Visibilité : 6 miles (10 km)
Lannion
couvert
Metar : 2022/01/28 18:00 LFRO 281800Z AUTO 26006KT 9999 FEW006 OVC011 09/09 Q1037
Couverture nuageuse : Few Clouds 600 ft Overcast 1100 ft
Traduc : Partly cloudy 700 ft
Pression de 30.62 inHg (1037 hPa)
Humidité : 100%
Température : 48°F (9°C)
Point de rosée : 48°F (9°C)
Vent de W at 7 mph (11 km/h)
Visibilité : 6 miles (10 km)
Dinard
couvert
Metar : 2022/01/28 18:00 LFRD 281800Z AUTO 25002KT 9999 OVC021 09/07 Q1037 TEMPO BKN008
Couverture nuageuse : Overcast 2100 ft
Traduc : Partly cloudy 700 ft
Pression de 30.62 inHg (1037 hPa)
Humidité : 87%
Température : 48°F (9°C)
Point de rosée : 45°F (7°C)
Vent de WSW at 2 mph (4 km/h)
Visibilité : 6 miles (10 km)
Brest

Metar : 2022/01/28 18:30 LFRB 281830Z AUTO VRB03KT 3900 1700 BR OVC004 10/09 Q1038 TEMPO 0400 FG VV//
Couverture nuageuse :
Traduc : Partly cloudy 700 ft
Pression de
Humidité :
Température :
Point de rosée :
Vent de varies at 3 mph (6 km/h)
Visibilité : 2 miles (4 km)
Quimper
couvert
Metar : 2022/01/28 18:00 LFRQ 281800Z AUTO 33005KT 9999 OVC008 09/09 Q1038 TEMPO 0400 FG VV///
Couverture nuageuse : Overcast 800 ft
Traduc : Partly cloudy 700 ft
Pression de 30.65 inHg (1038 hPa)
Humidité : 100%
Température : 48°F (9°C)
Point de rosée : 48°F (9°C)
Vent de NNW at 6 mph (9 km/h)
Visibilité : 6 miles (10 km)
St Nazaire
Brume, couvert
Metar : 2022/01/28 18:30 LFRZ 281830Z AUTO 28004KT 5000 BR BKN003 OVC010 08/08 Q1038 TEMPO 0400 FG VV/
Couverture nuageuse : Mostly Cloudy 300 ft Overcast 1000 ft
Traduc : Partly cloudy 700 ft
Pression de 30.65 inHg (1038 hPa)
Humidité : 100%
Température : 46°F (8°C)
Point de rosée : 46°F (8°C)
Vent de W at 5 mph (7 km/h)
Visibilité : 3 miles (5 km)
St Brieuc
couvert
Metar : 2022/01/28 18:00 LFRT 281800Z AUTO 28005KT 9999 OVC010 09/08 Q1037
Couverture nuageuse : Overcast 1000 ft
Traduc : Partly cloudy 700 ft
Pression de 30.62 inHg (1037 hPa)
Humidité : 94%
Température : 48°F (9°C)
Point de rosée : 46°F (8°C)
Vent de W at 6 mph (9 km/h)
Visibilité : 6 miles (10 km)
Lorient

Metar : 2022/01/28 18:00 LFRH 281800Z AUTO 25003KT 0900 0750 R25/1600D R07/1000U FG VV/// 08/08 Q1038 TEMPO 2000 BR
Couverture nuageuse :
Traduc : Partly cloudy 700 ft
Pression de
Humidité :
Température :
Point de rosée :
Vent de WSW at 3 mph (6 km/h)
Visibilité : 1 mile (1 km)
Vannes-Meucon
Brume
Metar : 2022/01/28 18:00 LFRV 281800Z AUTO 24001KT 4400 BR VV/// 08/08 Q1037
Couverture nuageuse :
Traduc : Partly cloudy 700 ft
Pression de 30.62 inHg (1037 hPa)
Humidité : 100%
Température : 46°F (8°C)
Point de rosée : 46°F (8°C)
Vent de WSW at 1 mph (2 km/h)
Visibilité : 3 miles (4 km)

 


   Weather Underground PWS IBRETAGN39      Weather Underground PWS IBRETAGN39Retour Météo-Laillé adhérent de Météo-Bretagne et d'Infoclimat. Données mises à jour en temps réel via Météolink Climatologie réalisée sous Wswin et GraphWeather.

Affichage prévisions météo de WeatherUnderground via script PHP de Saratoga.

Copyright 2012-2021


compteur